FMCZ Airport Information

Runway Information
Runway 16 Length 6330 ft width 92 ft
Elevation 10 ft Threshold 250 ft Heading 150
Runway 34 Length 6330 ft Width 92 ft
Elevation 23 ft Threshold 0 ft Heading 330
Airport Frequencies
Type AFIS Name AFIS Frequency 119.2 MHZ
Airport Navaids
Type VOR-DME Name Dzaoudzi Pamandzi Frequency 113500 KHZ
Type NDB Name Dzaoudzi Pamandzi Frequency 341 KHZ
Airport Weather Information & NOTAM
ADDS - METARS form results

(1425 UTC 19 January 2019)
Data provider http://aviationweather.gov/metar/data/
 
METAR text: FMCZ 191400Z AUTO 35006KT 300V040 9999 FEW019 SCT046 BKN058 27/23 Q1008 BECMG SCT022TCU
Conditions at: FMCZ (DZAOUDZI/PAMANZI, KM) observed 1400 UTC 19 January 2019
Temperature: 27.0°C (81°F)
Dewpoint: 23.0°C (73°F) [RH = 79%]
Pressure (altimeter): 29.76 inches Hg (1008.0 mb)
Winds: from the N (350 degrees) at 7 MPH (6 knots; 3.1 m/s)
Visibility: 6 or more miles (10+ km)
Ceiling: 5800 feet AGL
Clouds: few clouds at 1900 feet AGL
scattered clouds at 4600 feet AGL
broken clouds at 5800 feet AGL
Weather: no significant weather observed at this time

METAR text: FMCZ 191330Z AUTO 05009KT 020V080 5000 BR FEW013/// SCT022/// BKN031/// ///CB 27/25 Q1008 BECMG 32011KT
Conditions at: FMCZ (DZAOUDZI/PAMANZI, KM) observed 1330 UTC 19 January 2019
Temperature: 27.0°C (81°F)
Dewpoint: 25.0°C (77°F) [RH = 89%]
Pressure (altimeter): 29.76 inches Hg (1008.0 mb)
Winds: from the NE (50 degrees) at 10 MPH (9 knots; 4.6 m/s)
Visibility: 3 miles ( 5 km)
Ceiling: 3100 feet AGL
Clouds: few clouds at 1300 feet AGL
scattered clouds at 2200 feet AGL
broken clouds at 3100 feet AGL
Weather: BR  (mist)

Forecast for: FMCZ (DZAOUDZI/PAMANZI, KM)
Text: TAF FMCZ 191100Z 1912/2012 32011KT 9999 SCT022TCU
Forecast period: 1200 UTC 19 January 2019 to 1200 UTC 20 January 2019
Forecast type: FROM: standard forecast or significant change
Winds: from the NW (320 degrees) at 13 MPH (11 knots; 5.7 m/s)
Visibility: 6 or more miles 10+ km)
Ceiling: at least 12,000 feet AGL
Clouds: scattered clouds at 2200 feet AGL
Weather: no significant weather forecast for this period
Text: TEMPO 2008/2012 4000 TSRA FEW018CB BKN020TCU
Forecast period: 0800 to 1200 UTC 20 January 2019
Forecast type: TEMPORARY: The following changes expected for less than half the time period
Visibility: 2.49 miles (4.01 km)
Ceiling: 2000 feet AGL
Clouds: few clouds at 1800 feet AGL
broken clouds at 2000 feet AGL
Weather: TSRA  (rain associated with thunderstorm(s))